createdAt,value
2023-04-07T00:00:45.729Z,53.57
2023-04-07T00:03:13.706Z,53.81
2023-04-07T00:05:41.660Z,53.68
2023-04-07T00:08:09.540Z,53.73
2023-04-07T00:10:37.428Z,53.63
2023-04-07T00:13:05.272Z,53.74
2023-04-07T00:15:34.520Z,53.98
2023-04-07T00:18:02.431Z,54.22
2023-04-07T00:20:30.294Z,54.57
2023-04-07T00:22:58.191Z,54.55
2023-04-07T00:25:26.235Z,54.53
2023-04-07T00:27:54.126Z,54.23
2023-04-07T00:30:22.079Z,54.15
2023-04-07T00:32:51.773Z,53.93
2023-04-07T00:35:19.946Z,53.83
2023-04-07T00:37:47.833Z,53.93
2023-04-07T00:40:15.683Z,54.05
2023-04-07T00:42:43.606Z,53.92
2023-04-07T00:45:12.781Z,53.81
2023-04-07T00:47:40.756Z,53.92
2023-04-07T00:50:11.103Z,53.81
2023-04-07T00:52:38.950Z,53.73
2023-04-07T00:55:07.610Z,53.85
2023-04-07T00:57:35.453Z,53.79
2023-04-07T01:00:03.847Z,53.76
2023-04-07T01:02:35.242Z,53.69
2023-04-07T01:05:08.393Z,53.74
2023-04-07T01:07:40.839Z,53.62
2023-04-07T01:10:09.791Z,53.65
2023-04-07T01:12:39.718Z,53.73
2023-04-07T01:15:09.164Z,53.66
2023-04-07T01:17:38.030Z,53.63
2023-04-07T01:20:08.337Z,53.38
2023-04-07T01:22:40.351Z,53.45
2023-04-07T01:25:28.806Z,53.54
2023-04-07T01:28:02.496Z,53.56
2023-04-07T01:30:32.506Z,53.65
2023-04-07T01:33:01.219Z,53.60
2023-04-07T01:35:30.559Z,53.61
2023-04-07T01:37:58.428Z,53.48
2023-04-07T01:40:26.386Z,53.45
2023-04-07T01:42:54.279Z,53.62
2023-04-07T01:45:22.280Z,53.83
2023-04-07T01:47:51.551Z,53.97
2023-04-07T01:50:19.443Z,54.02
2023-04-07T01:52:47.310Z,54.08
2023-04-07T01:55:15.163Z,53.93
2023-04-07T01:57:43.034Z,53.87
2023-04-07T02:00:11.754Z,53.49
2023-04-07T02:02:42.847Z,53.51
2023-04-07T02:05:14.549Z,53.49
2023-04-07T02:07:44.246Z,53.48
2023-04-07T02:10:13.296Z,53.40
2023-04-07T02:12:41.424Z,53.51
2023-04-07T02:18:07.358Z,53.67
2023-04-07T02:20:36.870Z,53.71
2023-04-07T02:23:04.734Z,53.66
2023-04-07T02:25:34.147Z,53.57
2023-04-07T02:28:02.030Z,53.45
2023-04-07T02:30:29.861Z,53.57
2023-04-07T02:32:57.839Z,53.54
2023-04-07T02:35:25.670Z,53.59
2023-04-07T02:37:54.907Z,53.68
2023-04-07T02:40:22.734Z,53.64
2023-04-07T02:42:50.589Z,53.56
2023-04-07T02:45:18.470Z,53.63
2023-04-07T02:47:46.561Z,53.51
2023-04-07T02:50:14.462Z,53.53
2023-04-07T02:52:42.310Z,53.46
2023-04-07T02:55:11.820Z,53.45
2023-04-07T02:57:39.673Z,53.64
2023-04-07T03:00:08.650Z,53.73
2023-04-07T03:02:36.733Z,53.67
2023-04-07T03:05:05.014Z,53.61
2023-04-07T03:07:32.973Z,53.62
2023-04-07T03:10:01.065Z,53.64
2023-04-07T03:12:30.446Z,53.95
2023-04-07T03:14:58.364Z,53.87
2023-04-07T03:17:26.316Z,53.79
2023-04-07T03:19:54.263Z,53.73
2023-04-07T03:22:22.153Z,53.84
2023-04-07T03:24:50.091Z,53.81
2023-04-07T03:27:18.493Z,53.72
2023-04-07T03:29:47.938Z,53.67
2023-04-07T03:32:15.869Z,53.64
2023-04-07T03:34:43.734Z,53.82
2023-04-07T03:37:11.601Z,53.46
2023-04-07T03:39:41.098Z,53.54
2023-04-07T03:42:09.020Z,53.50
2023-04-07T03:44:37.167Z,53.74
2023-04-07T03:47:06.541Z,53.51
2023-04-07T03:49:34.412Z,53.61
2023-04-07T03:52:02.315Z,53.59
2023-04-07T03:54:30.256Z,53.53
2023-04-07T03:56:58.254Z,53.59
2023-04-07T03:59:26.200Z,53.66
2023-04-07T04:01:54.251Z,53.54
2023-04-07T04:04:24.510Z,53.66
2023-04-07T04:06:52.509Z,53.62
2023-04-07T04:09:20.928Z,53.64
2023-04-07T04:11:48.831Z,53.48
2023-04-07T04:14:17.389Z,53.62
2023-04-07T04:16:45.333Z,53.46
2023-04-07T04:19:13.211Z,53.47
2023-04-07T04:21:42.520Z,53.84
2023-04-07T04:24:10.460Z,54.00
2023-04-07T04:26:38.336Z,53.85
2023-04-07T04:29:06.423Z,53.85
2023-04-07T04:31:34.418Z,53.94
2023-04-07T04:34:02.537Z,54.16
2023-04-07T04:36:31.209Z,54.40
2023-04-07T04:39:00.855Z,54.23
2023-04-07T04:41:28.736Z,54.30
2023-04-07T04:43:56.761Z,54.29
2023-04-07T04:46:24.834Z,54.10
2023-04-07T04:48:52.801Z,54.11
2023-04-07T04:51:20.706Z,54.01
2023-04-07T04:53:48.658Z,54.09
2023-04-07T04:56:17.880Z,54.19
2023-04-07T04:58:46.545Z,54.32
2023-04-07T05:01:14.708Z,54.19
2023-04-07T05:03:42.822Z,54.29
2023-04-07T05:06:11.004Z,54.39
2023-04-07T05:08:38.934Z,54.35
2023-04-07T05:11:06.810Z,54.54
2023-04-07T05:13:36.029Z,54.51
2023-04-07T05:16:04.002Z,54.30
2023-04-07T05:18:31.961Z,54.46
2023-04-07T05:21:00.004Z,54.48
2023-04-07T05:23:27.952Z,54.53
2023-04-07T05:25:55.820Z,54.70
2023-04-07T05:28:25.355Z,54.67
2023-04-07T05:30:54.674Z,54.61
2023-04-07T05:33:22.543Z,54.62
2023-04-07T05:35:50.513Z,54.54
2023-04-07T05:38:18.449Z,54.65
2023-04-07T05:40:47.190Z,54.47
2023-04-07T05:43:15.118Z,54.53
2023-04-07T05:45:43.020Z,54.61
2023-04-07T05:48:12.550Z,54.49
2023-04-07T05:50:40.463Z,54.37
2023-04-07T05:53:08.381Z,54.56
2023-04-07T05:55:36.375Z,54.59
2023-04-07T05:58:04.561Z,54.57
2023-04-07T06:00:32.531Z,54.57
2023-04-07T06:03:01.995Z,54.57
2023-04-07T06:05:31.541Z,54.56
2023-04-07T06:07:59.551Z,54.45
2023-04-07T06:10:27.834Z,54.39
2023-04-07T06:12:56.194Z,54.57
2023-04-07T06:15:24.086Z,54.45
2023-04-07T06:17:51.994Z,54.55
2023-04-07T06:20:21.563Z,54.66
2023-04-07T06:22:51.295Z,54.69
2023-04-07T06:25:19.320Z,54.82
2023-04-07T06:27:47.252Z,54.91
2023-04-07T06:30:16.530Z,54.81
2023-04-07T06:32:48.969Z,54.81
2023-04-07T06:35:17.239Z,54.79
2023-04-07T06:37:48.216Z,54.86
2023-04-07T06:40:21.161Z,54.79
2023-04-07T06:43:00.835Z,54.54
2023-04-07T06:45:38.631Z,54.49
2023-04-07T06:48:11.174Z,54.44
2023-04-07T06:50:39.913Z,54.51
2023-04-07T06:53:10.950Z,54.46
2023-04-07T06:55:40.525Z,54.53
2023-04-07T06:58:08.740Z,54.53
2023-04-07T07:00:37.108Z,54.32
2023-04-07T07:03:05.294Z,54.64
2023-04-07T07:05:33.914Z,54.75
2023-04-07T07:08:02.431Z,54.67
2023-04-07T07:10:32.295Z,54.56
2023-04-07T07:13:02.276Z,54.78
2023-04-07T07:15:34.571Z,54.65
2023-04-07T07:18:03.010Z,54.62
2023-04-07T07:20:33.782Z,54.72
2023-04-07T07:23:01.945Z,54.67
2023-04-07T07:25:29.851Z,54.84
2023-04-07T07:27:57.837Z,54.90
2023-04-07T07:30:27.207Z,54.77
2023-04-07T07:32:55.631Z,54.53
2023-04-07T07:35:25.307Z,54.71
2023-04-07T07:37:53.807Z,54.55
2023-04-07T07:40:21.793Z,54.51
2023-04-07T07:42:52.849Z,54.41
2023-04-07T07:45:20.842Z,54.38
2023-04-07T07:47:50.456Z,54.33
2023-04-07T07:50:18.432Z,54.38
2023-04-07T07:52:46.377Z,54.42
2023-04-07T07:55:14.867Z,54.56
2023-04-07T07:57:42.939Z,54.60
2023-04-07T08:00:12.181Z,54.69
2023-04-07T08:02:40.170Z,54.58
2023-04-07T08:05:09.897Z,54.72
2023-04-07T08:07:37.861Z,54.79
2023-04-07T08:10:06.549Z,54.81
2023-04-07T08:12:34.672Z,54.74
2023-04-07T08:15:02.887Z,54.82
2023-04-07T08:17:31.547Z,54.80
2023-04-07T08:19:59.780Z,54.73
2023-04-07T08:22:29.267Z,54.71
2023-04-07T08:24:57.276Z,54.65
2023-04-07T08:27:25.720Z,54.74
2023-04-07T08:30:00.606Z,54.69
2023-04-07T08:32:36.004Z,54.71
2023-04-07T08:35:03.994Z,54.69
2023-04-07T08:37:34.084Z,54.59
2023-04-07T08:40:02.295Z,54.65
2023-04-07T08:42:31.009Z,54.74
2023-04-07T08:45:01.154Z,54.74
2023-04-07T08:47:29.253Z,54.64
2023-04-07T08:49:58.321Z,54.66
2023-04-07T08:52:26.199Z,54.62
2023-04-07T08:54:56.161Z,54.65
2023-04-07T08:57:24.132Z,54.57
2023-04-07T08:59:54.277Z,54.92
2023-04-07T09:02:22.748Z,54.85
2023-04-07T09:04:51.050Z,54.90
2023-04-07T09:07:19.155Z,54.88
2023-04-07T09:09:48.060Z,54.67
2023-04-07T09:12:17.385Z,54.81
2023-04-07T09:14:45.311Z,54.43
2023-04-07T09:17:13.191Z,54.56
2023-04-07T09:19:41.272Z,54.49
2023-04-07T09:22:12.639Z,54.18
2023-04-07T09:24:41.024Z,54.05
2023-04-07T09:27:15.243Z,54.00
2023-04-07T09:29:46.923Z,54.10
2023-04-07T09:32:15.077Z,53.75
2023-04-07T09:34:43.364Z,53.90
2023-04-07T09:37:12.000Z,53.56
2023-04-07T09:39:50.944Z,53.30
2023-04-07T09:42:19.221Z,53.05
2023-04-07T09:44:48.562Z,52.92
2023-04-07T09:47:16.698Z,52.84
2023-04-07T09:49:53.917Z,52.48
2023-04-07T09:52:26.640Z,52.59
2023-04-07T09:54:55.829Z,52.22
2023-04-07T09:57:23.853Z,52.46
2023-04-07T09:59:55.748Z,51.63
2023-04-07T10:02:23.891Z,51.96
2023-04-07T10:04:55.252Z,51.17
2023-04-07T10:07:25.364Z,50.62
2023-04-07T10:09:53.458Z,50.13
2023-04-07T10:12:27.854Z,49.47
2023-04-07T10:14:59.892Z,48.94
2023-04-07T10:17:28.709Z,48.11
2023-04-07T10:19:57.440Z,47.59
2023-04-07T10:22:25.576Z,47.12
2023-04-07T10:24:56.093Z,46.61
2023-04-07T10:27:31.006Z,46.66
2023-04-07T10:30:00.584Z,46.46
2023-04-07T10:32:29.326Z,46.16
2023-04-07T10:35:01.188Z,45.71
2023-04-07T10:37:34.460Z,45.64
2023-04-07T10:40:31.148Z,45.56
2023-04-07T10:42:59.487Z,45.22
2023-04-07T10:46:03.316Z,44.57
2023-04-07T10:48:33.503Z,44.10
2023-04-07T10:51:18.267Z,43.83
2023-04-07T10:54:21.235Z,43.30
2023-04-07T10:57:17.156Z,42.61
2023-04-07T11:00:16.051Z,42.70
2023-04-07T11:02:48.884Z,42.20
2023-04-07T11:05:24.037Z,42.15
2023-04-07T11:07:57.989Z,41.65
2023-04-07T11:10:26.360Z,41.44
2023-04-07T11:13:04.537Z,40.85
2023-04-07T11:15:34.173Z,40.09
2023-04-07T11:18:14.012Z,39.93
2023-04-07T11:20:45.871Z,41.29
2023-04-07T11:23:14.240Z,42.62
2023-04-07T11:25:44.049Z,41.99
2023-04-07T11:28:16.070Z,41.47
2023-04-07T11:30:51.792Z,40.51
2023-04-07T11:33:23.645Z,38.70
2023-04-07T11:35:57.252Z,37.61
2023-04-07T11:38:26.311Z,36.82
2023-04-07T11:40:55.005Z,36.39
2023-04-07T11:43:28.344Z,35.96
2023-04-07T11:46:07.312Z,35.02
2023-04-07T11:48:37.252Z,34.69
2023-04-07T11:51:07.663Z,33.68
2023-04-07T11:53:40.254Z,33.97
2023-04-07T11:56:10.378Z,34.49
2023-04-07T11:58:38.927Z,34.39
2023-04-07T12:01:09.239Z,33.92
2023-04-07T12:03:39.218Z,32.00
2023-04-07T12:06:07.631Z,31.54
2023-04-07T12:08:42.616Z,31.25
2023-04-07T12:11:16.665Z,31.23
2023-04-07T12:13:44.896Z,30.91
2023-04-07T12:16:13.514Z,29.94
2023-04-07T12:18:46.965Z,28.95
2023-04-07T12:21:15.103Z,27.64
2023-04-07T12:23:43.150Z,28.37
2023-04-07T12:26:12.019Z,29.03
2023-04-07T12:28:40.054Z,28.53
2023-04-07T12:31:11.246Z,28.64
2023-04-07T12:33:39.240Z,28.84
2023-04-07T12:36:09.717Z,28.46
2023-04-07T12:38:37.690Z,28.42
2023-04-07T12:41:05.618Z,28.06
2023-04-07T12:43:33.565Z,28.41
2023-04-07T12:46:01.631Z,28.53
2023-04-07T12:48:29.575Z,27.65
2023-04-07T12:50:57.517Z,27.44
2023-04-07T12:53:27.230Z,27.13
2023-04-07T12:55:56.206Z,27.00
2023-04-07T12:58:24.793Z,26.86
2023-04-07T13:00:53.608Z,26.55
2023-04-07T13:03:21.918Z,26.55
2023-04-07T13:05:50.235Z,26.45
2023-04-07T13:08:18.362Z,26.33
2023-04-07T13:10:47.704Z,26.08
2023-04-07T13:13:15.696Z,25.54
2023-04-07T13:15:43.585Z,25.43
2023-04-07T13:18:11.709Z,25.26
2023-04-07T13:20:40.334Z,25.10
2023-04-07T13:23:10.269Z,24.72
2023-04-07T13:25:38.389Z,24.12
2023-04-07T13:28:07.774Z,23.85
2023-04-07T13:30:35.811Z,24.06
2023-04-07T13:33:04.010Z,23.74
2023-04-07T13:35:35.912Z,23.64
2023-04-07T13:38:04.347Z,23.29
2023-04-07T13:40:32.351Z,23.15
2023-04-07T13:43:01.062Z,22.80
2023-04-07T13:45:30.559Z,22.87
2023-04-07T13:47:58.725Z,23.11
2023-04-07T13:50:27.228Z,22.55
2023-04-07T13:52:55.711Z,22.08
2023-04-07T13:55:23.821Z,21.99
2023-04-07T13:57:52.528Z,21.92
2023-04-07T14:00:20.938Z,22.11
2023-04-07T14:02:50.748Z,20.89
2023-04-07T14:05:19.457Z,20.63
2023-04-07T14:07:48.278Z,20.93
2023-04-07T14:10:18.595Z,21.29
2023-04-07T14:12:46.764Z,21.12
2023-04-07T14:15:18.454Z,20.59
2023-04-07T14:17:46.843Z,20.44
2023-04-07T14:20:16.166Z,20.80
2023-04-07T14:22:44.724Z,20.89
2023-04-07T14:25:13.037Z,21.16
2023-04-07T14:27:41.285Z,21.07
2023-04-07T14:30:10.913Z,20.65
2023-04-07T14:32:39.249Z,20.46
2023-04-07T14:35:08.678Z,20.97
2023-04-07T14:37:39.149Z,20.44
2023-04-07T14:40:08.658Z,20.58
2023-04-07T14:42:37.055Z,20.62
2023-04-07T14:45:05.449Z,20.48
2023-04-07T14:47:33.524Z,20.23
2023-04-07T14:50:01.745Z,20.13
2023-04-07T14:52:30.028Z,19.99
2023-04-07T14:55:00.588Z,19.72
2023-04-07T14:57:28.761Z,20.18
2023-04-07T14:59:56.734Z,20.10
2023-04-07T15:02:24.883Z,20.40
2023-04-07T15:04:53.151Z,20.84
2023-04-07T15:07:21.606Z,20.75
2023-04-07T15:09:51.668Z,21.08
2023-04-07T15:12:20.937Z,20.42
2023-04-07T15:14:52.014Z,20.47
2023-04-07T15:17:27.560Z,20.39
2023-04-07T15:20:01.162Z,20.55
2023-04-07T15:22:30.568Z,20.82
2023-04-07T15:24:58.491Z,20.56
2023-04-07T15:27:27.839Z,20.78
2023-04-07T15:29:56.100Z,20.43
2023-04-07T15:32:23.989Z,20.22
2023-04-07T15:34:52.699Z,19.64
2023-04-07T15:37:20.613Z,19.21
2023-04-07T15:39:49.204Z,19.72
2023-04-07T15:42:17.176Z,19.72
2023-04-07T15:44:49.673Z,19.81
2023-04-07T15:47:17.614Z,20.05
2023-04-07T15:49:45.507Z,19.42
2023-04-07T15:52:13.636Z,19.32
2023-04-07T15:54:41.572Z,18.82
2023-04-07T15:57:09.703Z,18.73
2023-04-07T15:59:37.554Z,18.51
2023-04-07T16:02:06.931Z,17.94
2023-04-07T16:04:34.829Z,18.07
2023-04-07T16:07:02.836Z,17.48
2023-04-07T16:09:30.761Z,17.26
2023-04-07T16:11:58.676Z,16.86
2023-04-07T16:14:29.085Z,16.93
2023-04-07T16:16:59.158Z,16.63
2023-04-07T16:19:28.690Z,16.66
2023-04-07T16:21:56.606Z,16.14
2023-04-07T16:24:24.684Z,16.71
2023-04-07T16:26:52.729Z,16.58
2023-04-07T16:29:20.794Z,16.25
2023-04-07T16:31:49.026Z,16.15
2023-04-07T16:34:17.168Z,15.74
2023-04-07T16:36:47.508Z,15.86
2023-04-07T16:39:15.595Z,15.84
2023-04-07T16:41:43.502Z,16.01
2023-04-07T16:44:11.483Z,15.61
2023-04-07T16:46:39.481Z,16.12
2023-04-07T16:49:07.401Z,16.02
2023-04-07T16:51:35.353Z,15.94
2023-04-07T16:54:05.992Z,15.80
2023-04-07T16:56:34.698Z,15.62
2023-04-07T16:59:04.085Z,15.67
2023-04-07T17:01:32.245Z,15.15
2023-04-07T17:04:00.340Z,15.42
2023-04-07T17:06:28.635Z,15.49
2023-04-07T17:08:56.566Z,15.68
2023-04-07T17:11:25.916Z,15.74
2023-04-07T17:13:57.095Z,15.35
2023-04-07T17:16:25.648Z,15.42
2023-04-07T17:18:53.665Z,15.05
2023-04-07T17:21:22.318Z,15.17
2023-04-07T17:23:50.613Z,15.46
2023-04-07T17:26:19.300Z,15.38
2023-04-07T17:28:48.756Z,15.61
2023-04-07T17:31:16.903Z,15.92
2023-04-07T17:33:44.943Z,15.88
2023-04-07T17:36:12.884Z,15.84
2023-04-07T17:38:40.886Z,16.45
2023-04-07T17:41:09.099Z,16.83
2023-04-07T17:43:37.108Z,16.60
2023-04-07T17:46:06.552Z,17.49
2023-04-07T17:48:34.484Z,17.50
2023-04-07T17:51:02.667Z,18.52
2023-04-07T17:53:31.262Z,19.06
2023-04-07T17:55:59.850Z,19.68
2023-04-07T17:58:27.962Z,21.12
2023-04-07T18:00:55.843Z,22.83
2023-04-07T18:03:25.777Z,23.97
2023-04-07T18:05:53.696Z,24.21
2023-04-07T18:08:21.579Z,25.80
2023-04-07T18:10:49.487Z,25.85
2023-04-07T18:13:17.426Z,26.74
2023-04-07T18:15:45.424Z,26.78
2023-04-07T18:18:13.560Z,27.42
2023-04-07T18:20:42.836Z,27.75
2023-04-07T18:23:10.766Z,27.95
2023-04-07T18:25:38.695Z,28.65
2023-04-07T18:28:07.110Z,29.12
2023-04-07T18:30:35.000Z,29.03
2023-04-07T18:33:03.101Z,29.73
2023-04-07T18:35:31.310Z,30.32
2023-04-07T18:38:00.889Z,30.93
2023-04-07T18:40:32.664Z,31.01
2023-04-07T18:43:00.737Z,31.32
2023-04-07T18:45:29.066Z,31.54
2023-04-07T18:47:57.095Z,31.69
2023-04-07T18:50:25.208Z,32.55
2023-04-07T18:52:53.263Z,32.28
2023-04-07T18:55:22.816Z,32.52
2023-04-07T18:57:50.726Z,32.20
2023-04-07T19:00:18.836Z,32.56
2023-04-07T19:02:47.503Z,32.93
2023-04-07T19:05:15.760Z,32.87
2023-04-07T19:07:43.641Z,32.70
2023-04-07T19:10:11.651Z,32.68
2023-04-07T19:12:40.968Z,32.93
2023-04-07T19:15:09.823Z,32.96
2023-04-07T19:17:37.885Z,33.20
2023-04-07T19:20:07.419Z,33.24
2023-04-07T19:22:35.356Z,33.29
2023-04-07T19:25:03.510Z,33.94
2023-04-07T19:27:31.447Z,34.17
2023-04-07T19:30:00.747Z,34.35
2023-04-07T19:32:28.850Z,34.68
2023-04-07T19:34:57.156Z,34.84
2023-04-07T19:37:25.285Z,35.01
2023-04-07T19:40:02.449Z,35.55
2023-04-07T19:42:31.393Z,35.70
2023-04-07T19:45:02.612Z,35.73
2023-04-07T19:47:30.719Z,36.07
2023-04-07T19:49:58.828Z,36.17
2023-04-07T19:52:27.085Z,36.47
2023-04-07T19:54:54.955Z,37.41
2023-04-07T19:57:22.982Z,38.14
2023-04-07T19:59:50.952Z,38.23
2023-04-07T20:02:21.634Z,38.46
2023-04-07T20:04:49.972Z,38.34
2023-04-07T20:07:17.923Z,39.36
2023-04-07T20:09:45.888Z,39.43
2023-04-07T20:12:14.893Z,40.04
2023-04-07T20:14:43.172Z,40.10
2023-04-07T20:17:11.042Z,40.25
2023-04-07T20:19:41.167Z,39.94
2023-04-07T20:22:09.279Z,39.79
2023-04-07T20:24:37.146Z,40.10
2023-04-07T20:27:05.034Z,40.01
2023-04-07T20:29:33.400Z,40.64
2023-04-07T20:32:01.278Z,41.01
2023-04-07T20:34:29.200Z,41.39
2023-04-07T20:36:59.000Z,41.62
2023-04-07T20:39:27.167Z,42.03
2023-04-07T20:41:55.237Z,42.52
2023-04-07T20:44:23.508Z,42.45
2023-04-07T20:46:51.719Z,42.85
2023-04-07T20:49:19.766Z,42.67
2023-04-07T20:51:48.096Z,42.68
2023-04-07T20:54:17.543Z,43.04
2023-04-07T20:56:45.685Z,43.18
2023-04-07T20:59:13.795Z,43.17
2023-04-07T21:01:41.760Z,43.46
2023-04-07T21:04:10.753Z,43.76
2023-04-07T21:06:38.727Z,43.94
2023-04-07T21:09:08.613Z,44.08
2023-04-07T21:11:38.012Z,44.34
2023-04-07T21:14:06.340Z,44.29
2023-04-07T21:16:34.324Z,44.50
2023-04-07T21:19:03.475Z,44.44
2023-04-07T21:21:31.566Z,44.10
2023-04-07T21:23:59.454Z,44.10
2023-04-07T21:26:27.688Z,44.08
2023-04-07T21:28:57.013Z,44.15
2023-04-07T21:31:25.533Z,44.39
2023-04-07T21:33:53.641Z,44.13
2023-04-07T21:36:21.543Z,44.31
2023-04-07T21:38:49.659Z,44.21
2023-04-07T21:41:17.891Z,44.46
2023-04-07T21:43:46.084Z,44.57
2023-04-07T21:46:16.436Z,44.58
2023-04-07T21:48:44.435Z,44.74
2023-04-07T21:51:12.575Z,44.97
2023-04-07T21:53:40.503Z,44.94
2023-04-07T21:56:09.878Z,44.98
2023-04-07T21:58:37.824Z,45.23
2023-04-07T22:01:05.852Z,45.08
2023-04-07T22:03:35.608Z,45.42
2023-04-07T22:06:03.646Z,45.77
2023-04-07T22:08:31.546Z,46.06
2023-04-07T22:10:59.490Z,46.28
2023-04-07T22:13:27.398Z,46.41
2023-04-07T22:15:55.867Z,46.53
2023-04-07T22:18:23.885Z,46.51
2023-04-07T22:20:53.130Z,46.49
2023-04-07T22:23:21.004Z,46.42
2023-04-07T22:25:49.217Z,46.70
2023-04-07T22:28:17.133Z,46.68
2023-04-07T22:30:45.030Z,46.54
2023-04-07T22:33:12.931Z,46.50
2023-04-07T22:35:41.005Z,46.54
2023-04-07T22:38:10.470Z,46.46
2023-04-07T22:40:38.362Z,46.52
2023-04-07T22:43:06.278Z,46.70
2023-04-07T22:45:35.439Z,46.69
2023-04-07T22:48:03.415Z,46.85
2023-04-07T22:50:31.422Z,46.74
2023-04-07T22:52:59.348Z,46.87
2023-04-07T22:55:29.672Z,46.74
2023-04-07T22:57:57.671Z,46.74
2023-04-07T23:00:25.758Z,46.74
2023-04-07T23:02:53.962Z,46.61
2023-04-07T23:05:22.081Z,46.73
2023-04-07T23:07:51.396Z,46.68
2023-04-07T23:10:19.424Z,46.67
2023-04-07T23:12:48.780Z,46.82
2023-04-07T23:15:16.719Z,46.92
2023-04-07T23:17:44.810Z,46.93
2023-04-07T23:20:13.379Z,46.90
2023-04-07T23:22:41.579Z,46.92
2023-04-07T23:25:10.353Z,47.17
2023-04-07T23:27:38.292Z,47.10
2023-04-07T23:30:09.164Z,47.23
2023-04-07T23:32:37.144Z,47.16
2023-04-07T23:35:06.725Z,47.17
2023-04-07T23:37:34.613Z,47.19
2023-04-07T23:40:02.522Z,47.09
2023-04-07T23:42:30.525Z,47.19
2023-04-07T23:44:58.419Z,47.30
2023-04-07T23:47:27.719Z,47.22
2023-04-07T23:49:55.676Z,47.06
2023-04-07T23:52:23.544Z,47.06
2023-04-07T23:54:51.947Z,47.10
2023-04-07T23:57:19.882Z,47.10
2023-04-07T23:59:47.777Z,47.11
